Time;durP1;ratioP1;P1;durP2;ratioP2;P2;SDS_P1;SDS_P2;PMS_P1;PMS_P2;Temp;Humidity;BMP_temperature;BMP_pressure;BME280_temperature;BME280_humidity;BME280_pressure;Samples;Min_cycle;Max_cycle;Signal;HPM_P1;HPM_P2
2022/09/09 00:01:43;;;;;;;0.52;0.25;;;14.40;99.90;;;;;;5050168;28;20045;-84
2022/09/09 00:04:33;;;;;;;0.20;0.20;;;14.40;99.90;;;;;;5049421;28;20038;-84
2022/09/09 00:07:03;;;;;;;0.22;0.22;;;14.40;99.90;;;;;;5049857;28;20043;-84
2022/09/09 00:10:02;;;;;;;0.20;0.20;;;14.40;99.90;;;;;;5049840;28;20045;-85
2022/09/09 00:12:40;;;;;;;0.20;0.20;;;14.30;99.90;;;;;;5049525;28;20124;-84
2022/09/09 00:15:19;;;;;;;0.50;0.30;;;14.30;99.90;;;;;;5030247;28;20041;-84
2022/09/09 00:18:24;;;;;;;0.57;0.22;;;14.30;99.90;;;;;;5046153;28;20081;-84
2022/09/09 00:21:09;;;;;;;0.25;0.20;;;14.20;99.90;;;;;;5040059;28;20054;-84
2022/09/09 00:23:43;;;;;;;0.20;0.20;;;14.20;99.90;;;;;;5029232;28;20045;-84
2022/09/09 00:26:35;;;;;;;0.20;0.20;;;14.20;99.90;;;;;;5029999;28;20042;-85
2022/09/09 00:29:20;;;;;;;0.45;0.30;;;14.20;99.90;;;;;;5046424;28;20131;-84
2022/09/09 00:31:47;;;;;;;0.10;0.10;;;14.10;99.90;;;;;;5029582;28;20041;-85
2022/09/09 00:34:19;;;;;;;0.30;0.20;;;14.10;99.90;;;;;;5026413;28;20045;-85
2022/09/09 00:36:51;;;;;;;0.38;0.25;;;14.00;99.90;;;;;;5062350;28;20062;-85
2022/09/09 00:39:41;;;;;;;0.38;0.30;;;14.10;99.90;;;;;;5062129;28;20482;-84
2022/09/09 00:42:18;;;;;;;0.25;0.25;;;14.10;99.90;;;;;;5045844;28;20418;-84
2022/09/09 00:44:59;;;;;;;0.63;0.30;;;14.10;99.90;;;;;;5062288;28;20406;-85
2022/09/09 00:47:42;;;;;;;0.10;0.10;;;14.10;99.90;;;;;;5061744;28;20045;-84
2022/09/09 00:50:54;;;;;;;1.30;0.20;;;14.10;99.90;;;;;;5046059;28;20180;-85
2022/09/09 00:53:27;;;;;;;0.30;0.30;;;14.10;99.90;;;;;;4989210;28;20046;-84
2022/09/09 00:56:08;;;;;;;0.60;0.45;;;14.00;99.90;;;;;;5040515;28;20046;-85
2022/09/09 00:58:35;;;;;;;0.65;0.20;;;14.00;99.90;;;;;;5045351;28;20096;-84
2022/09/09 01:01:08;;;;;;;0.20;0.17;;;14.00;99.90;;;;;;5012877;28;20045;-84
2022/09/09 01:03:45;;;;;;;0.30;0.20;;;14.00;99.90;;;;;;5029574;28;20060;-84
2022/09/09 01:06:15;;;;;;;0.60;0.38;;;14.00;99.90;;;;;;5082311;28;20041;-84
2022/09/09 01:09:10;;;;;;;0.32;0.30;;;13.90;99.90;;;;;;5048550;28;20729;-84
2022/09/09 01:12:14;;;;;;;0.20;0.20;;;13.90;99.90;;;;;;5048759;28;20042;-84
2022/09/09 01:15:05;;;;;;;0.13;0.10;;;13.90;99.90;;;;;;5048367;28;20033;-84
2022/09/09 01:17:38;;;;;;;0.35;0.30;;;13.90;99.90;;;;;;5037604;28;20053;-85
2022/09/09 01:21:00;;;;;;;0.13;0.13;;;13.90;99.90;;;;;;5048984;28;20117;-84
2022/09/09 01:23:30;;;;;;;0.22;0.22;;;13.80;99.90;;;;;;4992138;28;20125;-84
2022/09/09 01:26:17;;;;;;;1.10;0.40;;;13.80;99.90;;;;;;5038468;28;20042;-85
2022/09/09 01:28:48;;;;;;;0.22;0.10;;;13.80;99.90;;;;;;5048536;28;20041;-84
2022/09/09 01:31:21;;;;;;;0.05;0.05;;;13.80;99.90;;;;;;5048972;28;20091;-84
2022/09/09 01:33:48;;;;;;;0.20;0.20;;;13.80;99.90;;;;;;5064688;28;20490;-84
2022/09/09 01:36:45;;;;;;;0.20;0.20;;;13.80;99.90;;;;;;5032718;28;20040;-84
2022/09/09 01:39:12;;;;;;;;;;;13.70;99.90;;;;;;5052689;28;20053;-85
2022/09/09 01:41:39;;;;;;;0.40;0.32;;;13.70;99.90;;;;;;5065067;28;19921;-84
2022/09/09 01:44:07;;;;;;;0.28;0.20;;;13.70;99.90;;;;;;5048583;28;20044;-85
2022/09/09 01:46:34;;;;;;;0.10;0.10;;;13.60;99.90;;;;;;5048401;28;20069;-84
2022/09/09 01:49:03;;;;;;;0.45;0.30;;;13.60;99.90;;;;;;5032173;28;20092;-84
2022/09/09 01:51:31;;;;;;;0.10;0.10;;;13.60;99.90;;;;;;5064553;28;20075;-84
2022/09/09 01:53:57;;;;;;;0.25;0.22;;;13.60;99.90;;;;;;5032441;28;20073;-85
2022/09/09 01:56:41;;;;;;;0.20;0.10;;;13.60;99.90;;;;;;5032387;28;20142;-84
2022/09/09 01:59:26;;;;;;;0.40;0.22;;;13.60;99.90;;;;;;5065123;28;20034;-84
2022/09/09 02:02:18;;;;;;;0.40;0.25;;;13.60;99.90;;;;;;5064600;28;20094;-84
2022/09/09 02:04:55;;;;;;;0.38;0.20;;;13.60;99.90;;;;;;5047959;28;20080;-84
2022/09/09 02:07:41;;;;;;;0.20;0.20;;;13.60;99.90;;;;;;5048249;28;20103;-85
2022/09/09 02:10:25;;;;;;;0.20;0.20;;;13.60;99.90;;;;;;5051798;28;20059;-84
2022/09/09 02:13:00;;;;;;;0.25;0.25;;;13.60;99.90;;;;;;5051664;28;20555;-84
2022/09/09 02:15:43;;;;;;;0.10;0.10;;;13.60;99.90;;;;;;5051677;28;20486;-85
2022/09/09 02:18:13;;;;;;;0.28;0.15;;;13.60;99.90;;;;;;5051853;28;20041;-85
2022/09/09 02:20:41;;;;;;;0.50;0.25;;;13.60;99.90;;;;;;5051358;28;20051;-85
2022/09/09 02:23:12;;;;;;;0.20;0.15;;;13.60;99.90;;;;;;5051928;28;20041;-84
2022/09/09 02:25:41;;;;;;;0.10;0.10;;;13.60;99.90;;;;;;5051274;28;20425;-85
2022/09/09 02:28:10;;;;;;;0.28;0.20;;;13.60;99.90;;;;;;5082147;28;20080;-85
2022/09/09 02:30:39;;;;;;;0.20;0.20;;;13.60;99.90;;;;;;5044950;28;20044;-85
2022/09/09 02:33:07;;;;;;;0.28;0.20;;;13.60;99.90;;;;;;5047536;28;20038;-84
2022/09/09 02:35:37;;;;;;;0.75;0.22;;;13.70;99.90;;;;;;5021633;28;20390;-85
2022/09/09 02:38:07;;;;;;;0.20;0.17;;;13.70;99.90;;;;;;5029556;28;20037;-84
2022/09/09 02:40:34;;;;;;;0.25;0.13;;;13.70;99.90;;;;;;5050832;28;20444;-84
2022/09/09 02:43:02;;;;;;;0.10;0.10;;;13.70;99.90;;;;;;5035144;28;20137;-84
2022/09/09 02:45:39;;;;;;;0.30;0.30;;;13.60;99.90;;;;;;5051365;28;20041;-84
2022/09/09 02:48:25;;;;;;;0.03;0.03;;;13.70;99.90;;;;;;5051711;28;20037;-84
2022/09/09 02:51:06;;;;;;;0.15;0.15;;;13.70;99.90;;;;;;5050927;28;20400;-84
2022/09/09 02:53:46;;;;;;;0.10;0.10;;;13.70;99.90;;;;;;5051681;28;20092;-84
2022/09/09 02:56:20;;;;;;;0.13;0.13;;;13.70;99.90;;;;;;5050960;28;20052;-84
2022/09/09 02:58:47;;;;;;;0.10;0.10;;;13.70;99.90;;;;;;5050793;28;20045;-84
2022/09/09 03:01:17;;;;;;;0.10;0.10;;;13.70;99.90;;;;;;5034781;28;20048;-84
2022/09/09 03:03:46;;;;;;;0.10;0.10;;;13.70;99.90;;;;;;5050859;28;20076;-84
2022/09/09 03:06:14;;;;;;;0.25;0.25;;;13.80;99.90;;;;;;5051176;28;20125;-85
2022/09/09 03:08:41;;;;;;;0.22;0.20;;;13.80;99.90;;;;;;5050858;28;20525;-84
2022/09/09 03:11:09;;;;;;;0.00;0.00;;;13.80;99.90;;;;;;5034964;28;20049;-84
2022/09/09 03:13:36;;;;;;;0.55;0.30;;;13.80;99.90;;;;;;5050964;28;20034;-84
2022/09/09 03:16:03;;;;;;;0.38;0.22;;;13.90;99.90;;;;;;5034294;28;20033;-84
2022/09/09 03:18:30;;;;;;;0.32;0.20;;;13.90;99.90;;;;;;5051061;28;20095;-84
2022/09/09 03:20:59;;;;;;;0.65;0.43;;;13.90;99.90;;;;;;5050250;28;20042;-84
2022/09/09 03:23:26;;;;;;;0.10;0.10;;;13.90;99.90;;;;;;5035107;28;20075;-84
2022/09/09 03:25:56;;;;;;;0.30;0.20;;;13.90;99.90;;;;;;5034183;28;20575;-84
2022/09/09 03:28:24;;;;;;;0.15;0.15;;;13.90;99.90;;;;;;5035481;28;20139;-84
2022/09/09 03:30:51;;;;;;;0.17;0.15;;;13.90;99.90;;;;;;5050311;28;20417;-84
2022/09/09 03:33:18;;;;;;;0.28;0.20;;;13.90;99.90;;;;;;5050573;28;20052;-84
2022/09/09 03:35:48;;;;;;;0.15;0.15;;;14.00;99.90;;;;;;5034077;28;20041;-84
2022/09/09 03:38:15;;;;;;;0.40;0.17;;;14.00;99.90;;;;;;5050341;28;20490;-84
2022/09/09 03:40:49;;;;;;;0.25;0.10;;;14.00;99.90;;;;;;5050015;28;20044;-84
2022/09/09 03:43:16;;;;;;;0.00;0.00;;;14.00;99.90;;;;;;5050117;28;20048;-84
2022/09/09 03:45:49;;;;;;;0.00;0.00;;;14.10;99.90;;;;;;5050300;28;20041;-84
2022/09/09 03:48:16;;;;;;;0.10;0.10;;;14.10;99.90;;;;;;5066595;28;20401;-84
2022/09/09 03:50:48;;;;;;;0.13;0.13;;;14.10;99.90;;;;;;5050072;28;20049;-84
2022/09/09 03:53:17;;;;;;;0.10;0.10;;;14.10;99.90;;;;;;5050037;28;20560;-84
2022/09/09 03:55:49;;;;;;;0.00;0.00;;;14.10;99.90;;;;;;5066436;28;20045;-84
2022/09/09 03:58:18;;;;;;;0.00;0.00;;;14.10;99.90;;;;;;5050066;28;20493;-84
2022/09/09 04:00:59;;;;;;;0.00;0.00;;;14.10;99.90;;;;;;5050095;28;20409;-84
2022/09/09 04:03:26;;;;;;;0.00;0.00;;;14.10;99.90;;;;;;5050218;28;20091;-84
2022/09/09 04:05:54;;;;;;;0.30;0.20;;;14.20;99.90;;;;;;5049519;28;20484;-84
2022/09/09 04:08:21;;;;;;;0.10;0.10;;;14.20;99.90;;;;;;5082634;28;20057;-84
2022/09/09 04:10:49;;;;;;;0.03;0.03;;;14.20;99.90;;;;;;5049548;28;20045;-84
2022/09/09 04:13:17;;;;;;;0.10;0.10;;;14.20;99.90;;;;;;5049670;28;20721;-84
2022/09/09 04:15:50;;;;;;;0.10;0.10;;;14.30;99.90;;;;;;5033553;28;20037;-84
2022/09/09 04:18:17;;;;;;;0.17;0.17;;;14.30;99.90;;;;;;5050588;28;20128;-84
2022/09/09 04:20:46;;;;;;;0.20;0.10;;;14.30;99.90;;;;;;5029653;28;20125;-84
2022/09/09 04:23:13;;;;;;;0.15;0.10;;;14.30;99.90;;;;;;5029364;28;20596;-84
2022/09/09 04:25:52;;;;;;;0.00;0.00;;;14.30;99.90;;;;;;5030076;28;20073;-83
2022/09/09 04:28:20;;;;;;;0.10;0.10;;;14.30;99.90;;;;;;5029793;28;20038;-84
2022/09/09 04:30:47;;;;;;;0.32;0.15;;;14.30;99.90;;;;;;5029450;28;20049;-84
2022/09/09 04:33:14;;;;;;;0.03;0.03;;;14.40;99.90;;;;;;5048901;28;20489;-84
2022/09/09 04:35:47;;;;;;;0.00;0.00;;;14.40;99.90;;;;;;5049337;28;20076;-84
2022/09/09 04:38:15;;;;;;;0.15;0.10;;;14.30;99.90;;;;;;5049246;28;20044;-84
2022/09/09 04:40:49;;;;;;;0.20;0.10;;;14.40;99.90;;;;;;5049427;28;20073;-83
2022/09/09 04:43:16;;;;;;;0.00;0.00;;;14.30;99.90;;;;;;5049084;28;20037;-84
2022/09/09 04:45:43;;;;;;;0.45;0.20;;;14.40;99.90;;;;;;5032838;28;20132;-84
2022/09/09 04:48:10;;;;;;;0.20;0.20;;;14.30;99.90;;;;;;5049290;28;20030;-83
2022/09/09 04:50:37;;;;;;;0.10;0.10;;;14.30;99.90;;;;;;5033095;28;20099;-84
2022/09/09 04:53:04;;;;;;;0.10;0.10;;;14.30;99.90;;;;;;5032680;28;20079;-84
2022/09/09 04:55:32;;;;;;;0.10;0.10;;;14.30;99.90;;;;;;5049101;28;20041;-84
2022/09/09 04:58:06;;;;;;;0.28;0.15;;;14.30;99.90;;;;;;5032297;28;20091;-84
2022/09/09 05:00:35;;;;;;;0.10;0.10;;;14.30;99.90;;;;;;5048541;28;20046;-84
2022/09/09 05:03:05;;;;;;;0.10;0.10;;;14.30;99.90;;;;;;5061249;28;20489;-84
2022/09/09 05:05:36;;;;;;;0.17;0.17;;;14.30;99.90;;;;;;5038463;28;20072;-84
2022/09/09 05:08:08;;;;;;;0.10;0.10;;;14.30;99.90;;;;;;5042651;28;20141;-83
2022/09/09 05:10:38;;;;;;;0.10;0.10;;;14.30;99.90;;;;;;5029106;28;20085;-83
2022/09/09 05:13:04;;;;;;;0.22;0.10;;;14.30;99.90;;;;;;5029295;28;20045;-85
2022/09/09 05:15:31;;;;;;;0.55;0.22;;;14.30;99.90;;;;;;5029270;28;20034;-84
2022/09/09 05:18:02;;;;;;;0.10;0.10;;;14.30;99.90;;;;;;5026185;28;20093;-85
2022/09/09 05:20:28;;;;;;;0.47;0.15;;;14.30;99.90;;;;;;5029905;28;20046;-85
2022/09/09 05:22:56;;;;;;;0.10;0.10;;;14.30;99.90;;;;;;5048553;28;20044;-85
2022/09/09 05:25:27;;;;;;;0.03;0.03;;;14.30;99.90;;;;;;5040469;28;20477;-85
2022/09/09 05:27:53;;;;;;;0.20;0.20;;;14.30;99.90;;;;;;5024562;28;20073;-85
2022/09/09 05:30:22;;;;;;;0.17;0.17;;;14.30;99.90;;;;;;5026739;28;20570;-85
2022/09/09 05:32:48;;;;;;;0.38;0.20;;;14.30;99.90;;;;;;5028763;28;20203;-84
2022/09/09 05:35:16;;;;;;;0.10;0.10;;;14.30;99.90;;;;;;5012651;28;20129;-84
2022/09/09 05:37:42;;;;;;;0.00;0.00;;;14.30;99.90;;;;;;5016428;28;20029;-84
2022/09/09 05:40:10;;;;;;;0.10;0.10;;;14.30;99.90;;;;;;5037430;28;20048;-84
2022/09/09 05:42:37;;;;;;;0.22;0.17;;;14.30;99.90;;;;;;5032914;28;20555;-86
2022/09/09 05:45:04;;;;;;;0.22;0.20;;;14.30;99.90;;;;;;5051875;28;20037;-85
2022/09/09 05:47:31;;;;;;;0.10;0.10;;;14.20;99.90;;;;;;5036342;28;20041;-85
2022/09/09 05:49:57;;;;;;;0.20;0.10;;;14.20;99.90;;;;;;5036182;28;20048;-85
2022/09/09 05:52:25;;;;;;;0.05;0.05;;;14.30;99.90;;;;;;5035815;28;20075;-85
2022/09/09 05:54:54;;;;;;;0.20;0.20;;;14.20;99.90;;;;;;5036263;28;20118;-85
2022/09/09 05:57:20;;;;;;;0.00;0.00;;;14.30;99.90;;;;;;5036101;28;20276;-85
2022/09/09 05:59:47;;;;;;;0.00;0.00;;;14.20;99.90;;;;;;5035919;28;20076;-85
2022/09/09 06:02:14;;;;;;;0.10;0.10;;;14.20;99.90;;;;;;5035896;28;20065;-85
2022/09/09 06:04:40;;;;;;;0.10;0.10;;;14.20;99.90;;;;;;5085286;28;20447;-85
2022/09/09 06:07:07;;;;;;;0.28;0.20;;;14.30;99.90;;;;;;5052194;28;20555;-85
2022/09/09 06:09:34;;;;;;;0.08;0.08;;;14.30;99.90;;;;;;5035987;28;20059;-85
2022/09/09 06:12:01;;;;;;;0.10;0.10;;;14.30;99.90;;;;;;5051909;28;20041;-85
2022/09/09 06:14:27;;;;;;;0.05;0.05;;;14.30;99.90;;;;;;5052161;28;20049;-85
2022/09/09 06:16:54;;;;;;;0.10;0.10;;;14.30;99.90;;;;;;5068624;28;20041;-85
2022/09/09 06:19:21;;;;;;;0.00;0.00;;;14.40;99.90;;;;;;5035517;28;20041;-85
2022/09/09 06:21:48;;;;;;;0.00;0.00;;;14.30;99.90;;;;;;5051925;28;20610;-85
2022/09/09 06:24:17;;;;;;;0.20;0.20;;;14.40;99.90;;;;;;5051398;28;20037;-85
2022/09/09 06:26:45;;;;;;;0.00;0.00;;;14.40;99.90;;;;;;5052241;28;20108;-85
2022/09/09 06:29:12;;;;;;;0.03;0.03;;;14.40;99.90;;;;;;5051389;28;20041;-84
2022/09/09 06:31:38;;;;;;;0.00;0.00;;;14.40;99.90;;;;;;5084724;28;20052;-85
2022/09/09 06:34:07;;;;;;;0.13;0.08;;;14.40;99.90;;;;;;5051704;28;20184;-85
2022/09/09 06:36:36;;;;;;;0.10;0.10;;;14.40;99.90;;;;;;5051389;28;20055;-85
2022/09/09 06:39:04;;;;;;;0.05;0.05;;;14.40;99.90;;;;;;5051363;28;20408;-86
2022/09/09 06:41:32;;;;;;;0.32;0.22;;;14.40;99.90;;;;;;5083908;28;20587;-84
2022/09/09 06:44:00;;;;;;;0.28;0.28;;;14.50;99.90;;;;;;5051650;28;20049;-86
2022/09/09 06:46:30;;;;;;;0.10;0.10;;;14.40;99.90;;;;;;5052867;28;20041;-85
2022/09/09 06:48:58;;;;;;;0.50;0.30;;;14.50;99.90;;;;;;5051301;28;20080;-85
2022/09/09 06:51:28;;;;;;;0.13;0.13;;;14.60;99.90;;;;;;5051260;28;20038;-85
2022/09/09 06:53:56;;;;;;;0.08;0.08;;;14.60;99.90;;;;;;5083830;28;20033;-85
2022/09/09 06:56:28;;;;;;;0.52;0.20;;;14.60;99.90;;;;;;5067153;28;20072;-85
2022/09/09 06:58:58;;;;;;;0.10;0.10;;;14.70;99.90;;;;;;5050967;28;20044;-85
2022/09/09 07:01:27;;;;;;;0.35;0.17;;;14.70;99.90;;;;;;5050871;28;20037;-85
2022/09/09 07:03:58;;;;;;;0.05;0.05;;;14.80;99.90;;;;;;5051009;28;20048;-86
2022/09/09 07:06:27;;;;;;;0.20;0.20;;;14.90;99.90;;;;;;5050515;28;20454;-86
2022/09/09 07:09:00;;;;;;;0.05;0.05;;;14.90;99.90;;;;;;5050581;28;20446;-86
2022/09/09 07:11:29;;;;;;;0.20;0.10;;;15.00;99.90;;;;;;5050659;28;20124;-85
2022/09/09 07:13:58;;;;;;;0.20;0.20;;;15.10;99.90;;;;;;5050769;28;20508;-85
2022/09/09 07:16:27;;;;;;;0.00;0.00;;;15.10;99.90;;;;;;5050406;28;20491;-85
2022/09/09 07:19:00;;;;;;;0.08;0.08;;;15.30;99.90;;;;;;5083842;28;20045;-85
2022/09/09 07:21:28;;;;;;;0.17;0.17;;;15.30;99.90;;;;;;5055264;28;20428;-86
2022/09/09 07:23:56;;;;;;;0.38;0.20;;;15.40;99.90;;;;;;5083955;28;20042;-86
2022/09/09 07:26:25;;;;;;;0.13;0.13;;;15.60;99.90;;;;;;5050322;28;20390;-85
2022/09/09 07:28:53;;;;;;;0.20;0.20;;;15.60;99.90;;;;;;5050682;28;20040;-86
2022/09/09 07:31:23;;;;;;;0.00;0.00;;;15.60;99.90;;;;;;5034546;28;20037;-85
2022/09/09 07:33:50;;;;;;;0.32;0.20;;;15.60;99.90;;;;;;5050449;28;20452;-85
2022/09/09 07:36:25;;;;;;;0.30;0.20;;;15.60;99.90;;;;;;5034179;28;20029;-86
2022/09/09 07:38:57;;;;;;;0.05;0.05;;;15.70;99.90;;;;;;5050533;28;20049;-86
2022/09/09 07:41:31;;;;;;;0.30;0.25;;;15.70;99.90;;;;;;5050594;28;20528;-85
2022/09/09 07:43:58;;;;;;;0.20;0.20;;;15.70;99.90;;;;;;5083558;28;20060;-86
2022/09/09 07:46:26;;;;;;;0.20;0.08;;;15.80;99.90;;;;;;5049740;28;20116;-85
2022/09/09 07:48:55;;;;;;;0.28;0.25;;;15.90;99.90;;;;;;5050047;28;20508;-86
2022/09/09 07:51:30;;;;;;;0.20;0.20;;;15.90;99.90;;;;;;5050533;28;20129;-86
2022/09/09 07:54:01;;;;;;;0.28;0.17;;;16.00;99.90;;;;;;5050023;28;20041;-85
2022/09/09 07:56:29;;;;;;;0.17;0.17;;;16.10;99.90;;;;;;5050128;28;20079;-85
2022/09/09 07:58:58;;;;;;;0.10;0.00;;;16.30;99.90;;;;;;5049933;28;20037;-86
2022/09/09 08:01:28;;;;;;;0.20;0.20;;;16.40;99.90;;;;;;5049906;28;20041;-86
2022/09/09 08:04:04;;;;;;;0.20;0.20;;;16.50;99.90;;;;;;5066744;28;20069;-86
2022/09/09 08:06:39;;;;;;;0.10;0.10;;;16.70;99.90;;;;;;5082183;28;20073;-86
2022/09/09 08:09:06;;;;;;;0.20;0.20;;;16.80;99.90;;;;;;5066113;28;20521;-85
2022/09/09 08:11:35;;;;;;;0.22;0.22;;;16.90;99.90;;;;;;5082346;28;20128;-85
2022/09/09 08:14:03;;;;;;;0.15;0.10;;;17.00;99.90;;;;;;5066083;28;20037;-85
2022/09/09 08:16:32;;;;;;;0.28;0.28;;;17.10;99.90;;;;;;5066485;28;20038;-85
2022/09/09 08:18:59;;;;;;;0.10;0.10;;;17.10;99.90;;;;;;5066012;28;20053;-85
2022/09/09 08:21:31;;;;;;;0.52;0.30;;;17.10;99.90;;;;;;5033170;28;20033;-85
2022/09/09 08:23:59;;;;;;;0.20;0.20;;;17.20;99.90;;;;;;5049529;28;20512;-85
2022/09/09 08:26:31;;;;;;;0.30;0.20;;;17.20;99.90;;;;;;5082630;28;20044;-85
2022/09/09 08:29:00;;;;;;;0.28;0.15;;;17.30;99.90;;;;;;5065875;28;20083;-83
2022/09/09 08:31:31;;;;;;;0.50;0.40;;;17.40;99.90;;;;;;5065694;28;20551;-83
2022/09/09 08:33:59;;;;;;;0.47;0.35;;;17.50;99.90;;;;;;5049316;28;20037;-83
2022/09/09 08:36:29;;;;;;;0.10;0.10;;;17.50;99.90;;;;;;5049234;28;20033;-83
2022/09/09 08:38:57;;;;;;;0.40;0.30;;;17.60;99.90;;;;;;5048794;28;20064;-82
2022/09/09 08:41:42;;;;;;;0.47;0.30;;;17.60;99.90;;;;;;5049166;28;20477;-82
2022/09/09 08:44:31;;;;;;;0.35;0.28;;;17.60;99.90;;;;;;5049156;28;20481;-83
2022/09/09 08:47:43;;;;;;;0.47;0.30;;;17.50;99.90;;;;;;5065092;28;20497;-83
2022/09/09 08:50:35;;;;;;;0.47;0.20;;;17.50;99.90;;;;;;5049349;28;20047;-83
2022/09/09 08:53:10;;;;;;;0.28;0.28;;;17.40;99.90;;;;;;5082267;28;20127;-82
2022/09/09 08:55:42;;;;;;;0.22;0.13;;;17.40;99.90;;;;;;5048626;28;20045;-83
2022/09/09 08:58:24;;;;;;;0.22;0.17;;;17.40;99.90;;;;;;5065600;28;20053;-83
2022/09/09 09:01:19;;;;;;;0.30;0.28;;;17.30;99.90;;;;;;5048536;28;20903;-83
2022/09/09 09:04:17;;;;;;;0.60;0.43;;;17.40;99.90;;;;;;5013930;28;20049;-84
2022/09/09 09:06:50;;;;;;;0.10;0.10;;;17.30;99.90;;;;;;5048607;28;20128;-83
2022/09/09 09:09:41;;;;;;;0.20;0.20;;;17.40;99.90;;;;;;5047745;28;20093;-83
2022/09/09 09:12:21;;;;;;;0.32;0.30;;;17.50;99.90;;;;;;5049033;28;20041;-82
2022/09/09 09:14:48;;;;;;;0.20;0.20;;;17.60;99.90;;;;;;5064782;28;20405;-84
2022/09/09 09:17:19;;;;;;;0.20;0.20;;;17.70;99.90;;;;;;5048660;28;20034;-83
2022/09/09 09:19:47;;;;;;;0.20;0.20;;;17.70;99.90;;;;;;5052191;28;20493;-83
2022/09/09 09:22:32;;;;;;;0.30;0.30;;;17.70;99.90;;;;;;5036146;28;20034;-83
2022/09/09 09:25:02;;;;;;;1.17;0.17;;;18.00;99.90;;;;;;5051859;28;20037;-84
2022/09/09 09:27:36;;;;;;;0.47;0.40;;;18.20;99.90;;;;;;5051906;28;20045;-84
2022/09/09 09:30:15;;;;;;;0.32;0.30;;;18.40;99.90;;;;;;5052479;28;20124;-83
2022/09/09 09:32:59;;;;;;;0.25;0.22;;;18.50;99.90;;;;;;5069006;28;20045;-84
2022/09/09 09:35:26;;;;;;;0.28;0.22;;;18.60;99.90;;;;;;5068673;28;20515;-84
2022/09/09 09:37:54;;;;;;;0.40;0.40;;;18.60;99.90;;;;;;5052447;28;20046;-84
2022/09/09 09:40:23;;;;;;;1.10;0.40;;;18.60;99.90;;;;;;5068832;28;20147;-84
2022/09/09 09:42:53;;;;;;;0.22;0.22;;;18.60;99.90;;;;;;5035736;28;20574;-84
2022/09/09 09:45:23;;;;;;;0.38;0.30;;;18.70;99.90;;;;;;5068401;28;20467;-84
2022/09/09 09:48:05;;;;;;;0.43;0.32;;;18.70;99.90;;;;;;5068531;28;20045;-84
2022/09/09 09:50:33;;;;;;;1.48;0.50;;;18.60;99.90;;;;;;5061874;28;20096;-84
2022/09/09 09:53:03;;;;;;;0.30;0.30;;;18.60;99.90;;;;;;5068097;28;20044;-84
2022/09/09 09:55:33;;;;;;;0.43;0.43;;;18.70;99.90;;;;;;5041502;28;20072;-84
2022/09/09 09:58:15;;;;;;;0.20;0.20;;;18.80;99.90;;;;;;5051803;28;20040;-84
2022/09/09 10:00:49;;;;;;;0.10;0.10;;;19.10;99.90;;;;;;5073087;28;20085;-84
2022/09/09 10:03:27;;;;;;;0.50;0.45;;;19.20;99.90;;;;;;5029665;28;20036;-84
2022/09/09 10:05:56;;;;;;;0.75;0.32;;;19.30;99.90;;;;;;5051622;28;20069;-84
2022/09/09 10:08:25;;;;;;;0.45;0.40;;;19.20;99.90;;;;;;5035349;28;20526;-83
2022/09/09 10:11:07;;;;;;;0.45;0.40;;;19.10;99.90;;;;;;5072319;28;20042;-84
2022/09/09 10:13:57;;;;;;;0.60;0.43;;;19.10;99.90;;;;;;5032148;28;20429;-84
2022/09/09 10:16:54;;;;;;;0.28;0.22;;;19.00;99.90;;;;;;5056137;28;20076;-84
2022/09/09 10:19:35;;;;;;;0.40;0.30;;;18.90;99.90;;;;;;5051810;28;20148;-83
2022/09/09 10:22:17;;;;;;;0.20;0.20;;;18.90;99.90;;;;;;5035230;28;20493;-84
2022/09/09 10:25:02;;;;;;;0.65;0.45;;;19.00;99.90;;;;;;5040100;28;20038;-82
2022/09/09 10:27:45;;;;;;;0.10;0.10;;;19.00;99.90;;;;;;5035587;28;20033;-84
2022/09/09 10:30:24;;;;;;;0.20;0.10;;;18.90;99.90;;;;;;5050595;28;20041;-84
2022/09/09 10:33:01;;;;;;;0.88;0.50;;;18.90;99.90;;;;;;5068121;28;20052;-84
2022/09/09 10:35:48;;;;;;;0.30;0.30;;;19.10;99.90;;;;;;5051093;28;20050;-84
2022/09/09 10:38:14;;;;;;;0.13;0.13;;;19.20;99.90;;;;;;5049643;28;20349;-84
2022/09/09 10:40:55;;;;;;;1.27;0.40;;;19.30;99.90;;;;;;5067700;28;20037;-83
2022/09/09 10:43:43;;;;;;;0.35;0.20;;;19.40;99.90;;;;;;5051128;28;20516;-84
2022/09/09 10:46:35;;;;;;;0.10;0.10;;;19.40;99.90;;;;;;5050580;28;20405;-83
2022/09/09 10:49:30;;;;;;;0.15;0.15;;;19.40;99.90;;;;;;5070890;28;20045;-83
2022/09/09 10:52:19;;;;;;;0.17;0.10;;;19.40;99.90;;;;;;5032950;28;20475;-84
2022/09/09 10:54:51;;;;;;;0.15;0.10;;;19.30;99.90;;;;;;5051268;28;20041;-83
2022/09/09 10:57:40;;;;;;;0.20;0.20;;;19.30;99.90;;;;;;5050966;28;20052;-83
2022/09/09 11:00:15;;;;;;;1.02;0.50;;;19.50;99.90;;;;;;5050565;28;20065;-84
2022/09/09 11:02:42;;;;;;;0.25;0.22;;;19.70;99.90;;;;;;5051099;28;20033;-83
2022/09/09 11:05:29;;;;;;;0.10;0.10;;;19.90;99.90;;;;;;5031408;28;20041;-83
2022/09/09 11:08:04;;;;;;;0.25;0.25;;;19.90;99.90;;;;;;5050277;28;20049;-83
2022/09/09 11:10:48;;;;;;;0.47;0.32;;;19.80;99.90;;;;;;5050508;28;20045;-83
2022/09/09 11:13:22;;;;;;;0.10;0.10;;;19.70;99.90;;;;;;5083970;28;20049;-83
2022/09/09 11:16:44;;;;;;;0.30;0.20;;;19.70;99.90;;;;;;5050524;28;20081;-83
2022/09/09 11:19:14;;;;;;;0.08;0.08;;;19.80;99.90;;;;;;5042610;28;20088;-83
2022/09/09 11:21:49;;;;;;;0.20;0.20;;;20.00;99.90;;;;;;5030670;28;20041;-82
2022/09/09 11:24:41;;;;;;;0.27;0.17;;;20.20;99.90;;;;;;5025626;28;20033;-83
2022/09/09 11:27:30;;;;;;;0.22;0.22;;;20.30;99.90;;;;;;5047342;28;20041;-81
2022/09/09 11:30:02;;;;;;;0.85;0.30;;;20.30;99.90;;;;;;5083607;28;20049;-81
2022/09/09 11:32:57;;;;;;;0.30;0.20;;;20.40;99.90;;;;;;5050335;28;20145;-82
2022/09/09 11:35:54;;;;;;;0.45;0.22;;;20.40;99.90;;;;;;5066447;28;20045;-82
2022/09/09 11:38:31;;;;;;;2.67;0.35;;;20.60;99.90;;;;;;5015842;28;20137;-83
2022/09/09 11:41:03;;;;;;;1.75;0.30;;;20.60;99.90;;;;;;5060550;28;20052;-82
2022/09/09 11:43:38;;;;;;;0.17;0.17;;;20.80;99.90;;;;;;5049767;28;20072;-82
2022/09/09 11:46:05;;;;;;;0.20;0.13;;;20.90;99.90;;;;;;5050117;28;20099;-82
2022/09/09 11:48:36;;;;;;;0.35;0.28;;;20.90;99.90;;;;;;5033210;28;20083;-83
2022/09/09 11:51:07;;;;;;;0.10;0.10;;;20.70;99.90;;;;;;5050526;28;20041;-82
2022/09/09 11:53:47;;;;;;;0.60;0.30;;;20.60;99.90;;;;;;5050287;28;20129;-82
2022/09/09 11:56:34;;;;;;;0.10;0.10;;;20.60;99.90;;;;;;5066004;28;20091;-83
2022/09/09 11:59:30;;;;;;;0.10;0.10;;;20.80;99.90;;;;;;5049642;28;20045;-83
2022/09/09 12:02:01;;;;;;;0.35;0.22;;;21.10;99.90;;;;;;5066139;28;20497;-82
2022/09/09 12:04:41;;;;;;;0.73;0.28;;;21.20;99.90;;;;;;5065696;28;20051;-83
2022/09/09 12:07:11;;;;;;;0.10;0.10;;;21.30;99.90;;;;;;5082439;28;20079;-82
2022/09/09 12:09:46;;;;;;;0.32;0.10;;;21.10;99.90;;;;;;5065964;28;20053;-82
2022/09/09 12:12:12;;;;;;;0.80;0.45;;;21.00;99.90;;;;;;5049301;28;20082;-85
2022/09/09 12:15:14;;;;;;;0.10;0.10;;;21.20;99.90;;;;;;5049750;28;20508;-86
2022/09/09 12:17:56;;;;;;;0.43;0.35;;;21.30;99.90;;;;;;5006839;28;20520;-86
2022/09/09 12:20:30;;;;;;;0.20;0.20;;;21.20;99.90;;;;;;5048853;28;20478;-86
2022/09/09 12:23:06;;;;;;;0.30;0.28;;;21.10;99.90;;;;;;5049598;28;20644;-86
2022/09/09 12:26:00;;;;;;;0.10;0.10;;;21.00;99.90;;;;;;5065645;28;20064;-86
2022/09/09 12:28:43;;;;;;;0.10;0.10;;;20.90;99.90;;;;;;5049556;28;20052;-86
2022/09/09 12:31:35;;;;;;;0.43;0.30;;;20.70;99.90;;;;;;5049305;28;20041;-86
2022/09/09 12:34:10;;;;;;;0.20;0.20;;;20.60;99.90;;;;;;5046812;28;20052;-86
2022/09/09 12:36:39;;;;;;;0.30;0.20;;;20.60;99.90;;;;;;5074993;28;20497;-86
2022/09/09 12:39:34;;;;;;;0.22;0.20;;;20.60;99.90;;;;;;5029671;28;20081;-86
2022/09/09 12:42:04;;;;;;;0.28;0.25;;;20.50;99.90;;;;;;5066034;28;20046;-85
2022/09/09 12:44:32;;;;;;;0.05;0.05;;;20.60;99.90;;;;;;5027920;28;20042;-86
2022/09/09 12:47:02;;;;;;;0.35;0.20;;;20.60;99.90;;;;;;5062848;28;20045;-86
2022/09/09 12:49:38;;;;;;;0.10;0.10;;;20.60;99.90;;;;;;5064953;28;20494;-86
2022/09/09 12:52:22;;;;;;;0.10;0.10;;;20.70;99.90;;;;;;5048566;28;20037;-86
2022/09/09 12:54:51;;;;;;;0.00;0.00;;;20.70;99.90;;;;;;5056254;28;20084;-86
2022/09/09 12:57:18;;;;;;;0.13;0.10;;;20.80;99.90;;;;;;5028770;28;20524;-84
2022/09/09 12:59:45;;;;;;;0.00;0.00;;;20.80;99.90;;;;;;5034618;28;20037;-86
2022/09/09 13:02:24;;;;;;;0.10;0.10;;;20.80;99.90;;;;;;5019266;28;20040;-86
2022/09/09 13:04:52;;;;;;;0.17;0.10;;;20.90;99.90;;;;;;5049211;28;20044;-86
2022/09/09 13:07:21;;;;;;;0.00;0.00;;;20.90;99.90;;;;;;5032589;28;20464;-84
2022/09/09 13:09:48;;;;;;;0.52;0.28;;;20.80;99.90;;;;;;5049030;28;20087;-86
2022/09/09 13:12:19;;;;;;;0.10;0.10;;;20.70;99.90;;;;;;5032388;28;20048;-86
2022/09/09 13:14:50;;;;;;;0.20;0.20;;;20.80;99.90;;;;;;5048788;28;20055;-86
2022/09/09 13:17:27;;;;;;;0.10;0.10;;;21.00;99.90;;;;;;5049036;28;20452;-86
2022/09/09 13:19:55;;;;;;;0.10;0.10;;;21.20;99.90;;;;;;5061760;28;20041;-86
2022/09/09 13:22:36;;;;;;;0.47;0.20;;;21.30;99.90;;;;;;5048130;28;20516;-85
2022/09/09 13:25:25;;;;;;;1.75;0.43;;;21.50;99.90;;;;;;5029125;28;20040;-86